Ana Sayfa
METAR-TAF:

METAR-TAF

Havaalanları :

Massena, New York, Amerika Birleşik Devletleri

Enlem: 44-56-09N, Boylam: 074-50-44W, yükseklik: 66 m

Güncel hava durumu gözlemi

Rapor saat 02:53 UTC de 1 saat ve 2 dakika önce yapıldı.
Rüzgar güneybatıdan 6 kt
Sıcaklık 21°C
Nem 83%
Basınç 1015 hPa
Görüş mesafesi: 16.1 km
Açık gökyüzü

METAR: KMSS 270253Z AUTO 22006KT 10SM CLR 21/18 A2998 RMK AO2 SLP152 T02110178 53015

Saat: 23:55 (03:55 UTC)

Tahmin

Rapor saat 23:25 UTC de 4 saat ve 30 dakika önce yapıldı.
Ayın 27'si saat 00 UTC'den ayın 27'si saat 24 UTC'ye kadar geçerli Tahmin
Rüzgar batı/güneybatıdan 10 kt
Görüş mesafesi: 10 km
Açık gökyüzü
Ayın 27'si saat 0600 UTC'den
Rüzgar değişken yönden 3 kt
Görüş mesafesi: 10 km
Açık gökyüzü
Ayın 27'si saat 1600 UTC'den
Rüzgar batı/güneybatıdan 8 kt
Görüş mesafesi: 10 km
20000 ft yükseklikte parçalı bulutlu

TAF: KMSS 262325Z 2700/2724 24010KT P6SM SKC FM270600 VRB03KT P6SM SKC FM271600 25008KT P6SM SCT200

4.000'den fazla havaalanı için hava durumu gözlemleri ve tahminleri (METAR ve TAF raporları).

Kullanılabilir istasyonlar harita üzerinde sarı ve kırmızı noktalarla gösterilir.

İstasyonun adını görmek için fareyi noktanın üzerinde gezdirin.

Sonrasında hava gözlem ve tahminlerini görmek için tıklayın.

Haritayı değiştirmek için: yaklaştırmak için siyah artı işaretli yeşil düğmeye ve uzaklaştırmak için de eksi işaretli düğmeye hızla tıklayın; bitişik haritalar için yeşil okları kullanın.


METAR-TAF: